createdAt,value
2022-12-27T00:00:10.517Z,7.10
2022-12-27T00:03:17.157Z,7.20
2022-12-27T00:06:23.244Z,7.20
2022-12-27T00:09:24.053Z,7.10
2022-12-27T00:12:25.078Z,7.10
2022-12-27T00:15:26.201Z,7.20
2022-12-27T00:18:27.366Z,7.20
2022-12-27T00:21:28.327Z,7.20
2022-12-27T00:24:29.692Z,7.20
2022-12-27T00:27:30.357Z,7.20
2022-12-27T00:30:32.358Z,7.30
2022-12-27T00:33:36.401Z,7.30
2022-12-27T00:36:37.647Z,7.40
2022-12-27T00:39:38.187Z,7.30
2022-12-27T00:42:39.017Z,7.30
2022-12-27T00:45:39.847Z,7.30
2022-12-27T00:48:41.759Z,7.20
2022-12-27T00:51:42.920Z,7.10
2022-12-27T00:54:44.090Z,7.00
2022-12-27T00:57:45.273Z,7.00
2022-12-27T01:00:46.086Z,7.00
2022-12-27T01:03:48.219Z,7.00
2022-12-27T01:06:48.997Z,7.10
2022-12-27T01:09:50.151Z,7.10
2022-12-27T01:12:51.212Z,7.10
2022-12-27T01:15:52.354Z,7.00
2022-12-27T01:18:55.022Z,7.00
2022-12-27T01:21:56.112Z,6.90
2022-12-27T01:24:57.053Z,6.80
2022-12-27T01:27:57.940Z,6.70
2022-12-27T01:30:58.731Z,6.70
2022-12-27T01:34:01.243Z,6.50
2022-12-27T01:37:02.403Z,6.40
2022-12-27T01:40:03.808Z,6.40
2022-12-27T01:43:04.687Z,6.20
2022-12-27T01:46:05.782Z,6.30
2022-12-27T01:49:11.512Z,6.10
2022-12-27T01:52:14.803Z,5.90
2022-12-27T01:55:21.620Z,5.80
2022-12-27T01:58:31.208Z,5.80
2022-12-27T02:01:43.927Z,5.90
2022-12-27T02:04:45.730Z,6.00
2022-12-27T02:08:13.248Z,6.10
2022-12-27T02:11:15.926Z,6.10
2022-12-27T02:14:31.371Z,6.10
2022-12-27T02:17:33.864Z,6.10
2022-12-27T02:20:56.564Z,6.10
2022-12-27T02:24:49.977Z,6.00
2022-12-27T02:28:19.009Z,6.00
2022-12-27T02:31:30.763Z,5.90
2022-12-27T02:34:50.757Z,5.90
2022-12-27T02:38:01.500Z,5.90
2022-12-27T02:41:25.553Z,5.80
2022-12-27T02:44:45.165Z,5.70
2022-12-27T02:48:07.672Z,5.70
2022-12-27T02:52:04.695Z,5.60
2022-12-27T02:55:27.058Z,5.70
2022-12-27T02:59:09.948Z,5.80
2022-12-27T03:02:55.458Z,5.80
2022-12-27T03:06:42.022Z,5.70
2022-12-27T03:10:21.514Z,5.70
2022-12-27T03:14:08.363Z,5.60
2022-12-27T03:17:44.158Z,5.50
2022-12-27T03:21:07.665Z,5.60
2022-12-27T03:24:30.054Z,5.60
2022-12-27T03:27:37.017Z,5.70
2022-12-27T03:30:59.406Z,5.70
2022-12-27T03:34:27.706Z,5.70
2022-12-27T03:37:56.641Z,5.60
2022-12-27T03:41:24.690Z,5.50
2022-12-27T03:44:27.914Z,5.50
2022-12-27T03:47:49.454Z,5.50
2022-12-27T03:51:05.348Z,5.40
2022-12-27T03:54:26.702Z,5.20
2022-12-27T03:57:28.983Z,5.20
2022-12-27T04:00:30.063Z,5.20
2022-12-27T04:03:31.367Z,5.20
2022-12-27T04:06:32.059Z,5.20
2022-12-27T04:09:52.334Z,5.20
2022-12-27T04:13:11.583Z,5.20
2022-12-27T04:16:30.774Z,5.20
2022-12-27T04:19:50.097Z,5.20
2022-12-27T04:23:09.829Z,5.20
2022-12-27T04:26:29.267Z,5.20
2022-12-27T04:29:48.868Z,5.10
2022-12-27T04:33:08.113Z,5.10
2022-12-27T04:36:09.382Z,5.00
2022-12-27T04:39:10.726Z,4.80
2022-12-27T04:42:29.712Z,4.90
2022-12-27T04:45:49.512Z,4.80
2022-12-27T04:49:09.119Z,4.80
2022-12-27T04:52:34.932Z,4.80
2022-12-27T04:55:35.846Z,4.90
2022-12-27T04:58:36.614Z,5.00
2022-12-27T05:01:55.877Z,5.00
2022-12-27T05:04:58.299Z,5.20
2022-12-27T05:08:19.330Z,5.30
2022-12-27T05:11:38.495Z,5.30
2022-12-27T05:14:39.074Z,5.30
2022-12-27T05:17:40.257Z,5.30
2022-12-27T05:20:40.993Z,5.30
2022-12-27T05:24:05.336Z,5.30
2022-12-27T05:27:06.820Z,5.20
2022-12-27T05:30:08.592Z,5.20
2022-12-27T05:33:09.699Z,5.20
2022-12-27T05:36:11.196Z,5.10
2022-12-27T05:39:12.237Z,5.10
2022-12-27T05:42:12.928Z,5.10
2022-12-27T05:45:14.418Z,5.10
2022-12-27T05:48:15.300Z,5.10
2022-12-27T05:51:21.937Z,5.00
2022-12-27T05:54:23.026Z,5.10
2022-12-27T05:57:23.799Z,5.00
2022-12-27T06:00:24.588Z,5.00
2022-12-27T06:03:25.513Z,5.00
2022-12-27T06:06:26.592Z,5.00
2022-12-27T06:09:27.450Z,4.90
2022-12-27T06:12:28.562Z,4.80
2022-12-27T06:15:30.038Z,4.80
2022-12-27T06:18:34.767Z,4.80
2022-12-27T06:21:37.075Z,4.90
2022-12-27T06:24:38.230Z,4.90
2022-12-27T06:27:39.246Z,4.90
2022-12-27T06:30:39.909Z,4.90
2022-12-27T06:33:41.246Z,5.00
2022-12-27T06:36:42.644Z,4.90
2022-12-27T06:39:46.150Z,4.90
2022-12-27T06:42:47.043Z,4.90
2022-12-27T06:45:59.865Z,5.00
2022-12-27T06:49:01.473Z,5.10
2022-12-27T06:52:03.591Z,5.10
2022-12-27T06:55:04.969Z,5.10
2022-12-27T06:58:05.704Z,5.00
2022-12-27T07:01:28.115Z,5.00
2022-12-27T07:04:29.242Z,5.00
2022-12-27T07:07:30.490Z,5.00
2022-12-27T07:10:31.410Z,5.00
2022-12-27T07:13:47.705Z,5.00
2022-12-27T07:16:50.121Z,5.00
2022-12-27T07:19:51.132Z,4.90
2022-12-27T07:22:52.537Z,4.80
2022-12-27T07:25:53.594Z,4.80
2022-12-27T07:28:57.768Z,4.80
2022-12-27T07:31:59.207Z,4.80
2022-12-27T07:35:00.419Z,4.80
2022-12-27T07:38:01.657Z,4.80
2022-12-27T07:41:03.533Z,4.90
2022-12-27T07:44:05.227Z,5.00
2022-12-27T07:47:06.896Z,5.00
2022-12-27T07:50:08.167Z,5.00
2022-12-27T07:53:09.093Z,5.00
2022-12-27T07:56:23.395Z,5.00
2022-12-27T07:59:27.682Z,5.10
2022-12-27T08:02:28.766Z,5.10
2022-12-27T08:05:29.685Z,5.10
2022-12-27T08:08:44.967Z,5.20
2022-12-27T08:11:46.488Z,5.30
2022-12-27T08:14:47.669Z,5.30
2022-12-27T08:17:48.951Z,5.30
2022-12-27T08:20:51.450Z,5.30
2022-12-27T08:23:52.342Z,5.40
2022-12-27T08:26:54.540Z,5.50
2022-12-27T08:29:55.360Z,5.50
2022-12-27T08:32:56.328Z,5.60
2022-12-27T08:35:58.775Z,5.60
2022-12-27T08:39:01.009Z,5.70
2022-12-27T08:42:02.314Z,5.80
2022-12-27T08:45:03.464Z,5.90
2022-12-27T08:48:06.202Z,6.00
2022-12-27T08:51:12.603Z,6.10
2022-12-27T08:54:14.410Z,6.10
2022-12-27T08:57:15.172Z,6.10
2022-12-27T09:00:16.596Z,6.10
2022-12-27T09:03:21.676Z,6.10
2022-12-27T09:06:25.894Z,6.10
2022-12-27T09:09:27.298Z,6.00
2022-12-27T09:12:28.364Z,6.10
2022-12-27T09:15:29.461Z,6.10
2022-12-27T09:18:30.740Z,6.00
2022-12-27T09:21:34.143Z,6.00
2022-12-27T09:24:35.121Z,5.90
2022-12-27T09:27:38.247Z,6.40
2022-12-27T09:30:39.149Z,6.10
2022-12-27T09:33:40.690Z,6.00
2022-12-27T09:36:42.681Z,6.00
2022-12-27T09:39:43.395Z,6.00
2022-12-27T09:43:10.482Z,6.10
2022-12-27T09:46:24.102Z,6.10
2022-12-27T09:49:38.084Z,6.30
2022-12-27T09:52:59.513Z,6.40
2022-12-27T09:56:00.848Z,6.40
2022-12-27T09:59:26.479Z,6.30
2022-12-27T10:02:29.634Z,6.30
2022-12-27T10:05:36.547Z,6.40
2022-12-27T10:08:50.663Z,6.60
2022-12-27T10:12:29.809Z,6.70
2022-12-27T10:16:02.451Z,7.00
2022-12-27T10:19:21.143Z,7.30
2022-12-27T10:22:30.934Z,7.50
2022-12-27T10:25:36.197Z,7.40
2022-12-27T10:28:45.768Z,7.40
2022-12-27T10:31:46.958Z,7.70
2022-12-27T10:35:04.313Z,7.50
2022-12-27T10:38:10.823Z,7.50
2022-12-27T10:41:41.000Z,7.70
2022-12-27T10:44:41.948Z,7.20
2022-12-27T10:47:42.812Z,7.10
2022-12-27T10:51:01.779Z,6.90
2022-12-27T10:54:12.059Z,7.30
2022-12-27T13:21:32.889Z,7.90
2022-12-27T13:25:11.090Z,8.10
2022-12-27T14:04:40.096Z,7.60
2022-12-27T14:08:04.408Z,7.50
2022-12-27T14:11:26.858Z,7.30
2022-12-27T14:14:30.590Z,7.30
2022-12-27T14:17:53.296Z,7.20
2022-12-27T14:21:42.153Z,7.10
2022-12-27T14:25:09.068Z,7.10
2022-12-27T14:49:37.782Z,7.00
2022-12-27T14:53:38.296Z,7.00
2022-12-27T14:57:13.585Z,6.90
2022-12-27T15:00:24.695Z,6.80
2022-12-27T15:03:50.619Z,6.80
2022-12-27T15:07:32.508Z,6.70
2022-12-27T15:11:00.522Z,6.70
2022-12-27T15:14:42.619Z,6.60
2022-12-27T15:17:46.509Z,6.50
2022-12-27T15:21:20.390Z,6.50
2022-12-27T15:25:05.234Z,6.40
2022-12-27T15:28:37.554Z,6.20
2022-12-27T15:31:56.592Z,5.90
2022-12-27T15:36:04.486Z,5.90
2022-12-27T15:39:06.586Z,5.80
2022-12-27T15:42:46.464Z,5.70
2022-12-27T15:46:23.543Z,5.60
2022-12-27T15:49:48.785Z,5.70
2022-12-27T15:53:10.365Z,5.70
2022-12-27T15:56:26.540Z,5.70
2022-12-27T15:59:54.281Z,5.60
2022-12-27T16:03:21.056Z,5.50
2022-12-27T16:06:34.546Z,5.50
2022-12-27T16:09:38.469Z,5.60
2022-12-27T16:12:40.366Z,5.50
2022-12-27T16:15:48.139Z,5.50
2022-12-27T16:19:22.159Z,5.50
